Al Hamla — V7MX9 — position and weather

sailwx.info

Track history (hours):
 
Tides and Currents Weather Stations Pressure Air Temp Water Temp Dewpoint Dewpoint Depression Visibility Wind Speed Wind Dir Waves Ship Positions

Al Hamla

Last reported at 2015-Apr-16 07:25 UTC. Time now 2015-Apr-19 04:36 UTC.
Position N 19°24' E 119°21'.

Length 350 m; draft 9.6 m.

Type: Tanker. MMSI: 538002922.

Date/timePositionNaut miles runAvg speedWind from/ knotsBaromVisibWave heightAir tempDewpointWater temp
2015-Apr-16 07:25N 19°24' E 119°21'  
2015-Apr-13 13:33N 33°53' E 134°55'7 6.7
2015-Apr-13 12:33N 33°60' E 134°57'1414.2
2015-Apr-13 11:33N 34°14' E 134°58'1514.4
2015-Apr-13 10:32N 34°28' E 135°03'8 7.9
2015-Apr-13 09:33N 34°36' E 135°03'1512.3
2015-Apr-13 08:20N 34°33' E 134°45'1312.3
2015-Apr-13 07:16N 34°45' E 134°41'5 0.2
2015-Apr-12 01:30N 34°41' E 134°41'13 9.8
2015-Apr-12 00:10N 34°36' E 134°56'710.7
2015-Apr-11 23:33N 34°36' E 135°04'7 6.9
2015-Apr-11 22:33N 34°29' E 135°06'1311.2
2015-Apr-11 21:21N 34°17' E 134°59'810.0
2015-Apr-11 20:33N 34°09' E 134°59'7 6.8
2015-Apr-11 19:33N 34°02' E 134°59'8 7.8
2015-Apr-11 18:33N 33°55' E 134°59'  
Track history (hours):
 
Tides and Currents Weather Stations Pressure Air Temp Water Temp Dewpoint Dewpoint Depression Visibility Wind Speed Wind Dir Waves Ship Positions

Al Hamla

Last reported at 2015-Apr-16 07:25 UTC. Time now 2015-Apr-19 04:36 UTC.
Position N 19°24' E 119°21'.

Length 350 m; draft 9.6 m.

Type: Tanker. MMSI: 538002922.

Date/timePositionNaut miles runAvg speedWind from/ knotsBaromVisibWave heightAir tempDewpointWater temp
2015-Apr-16 07:25N 19°24' E 119°21'  
2015-Apr-13 13:33N 33°53' E 134°55'7 6.7
2015-Apr-13 12:33N 33°60' E 134°57'1414.2
2015-Apr-13 11:33N 34°14' E 134°58'1514.4
2015-Apr-13 10:32N 34°28' E 135°03'8 7.9
2015-Apr-13 09:33N 34°36' E 135°03'1512.3
2015-Apr-13 08:20N 34°33' E 134°45'1312.3
2015-Apr-13 07:16N 34°45' E 134°41'5 0.2
2015-Apr-12 01:30N 34°41' E 134°41'13 9.8
2015-Apr-12 00:10N 34°36' E 134°56'710.7
2015-Apr-11 23:33N 34°36' E 135°04'7 6.9
2015-Apr-11 22:33N 34°29' E 135°06'1311.2
2015-Apr-11 21:21N 34°17' E 134°59'810.0
2015-Apr-11 20:33N 34°09' E 134°59'7 6.8
2015-Apr-11 19:33N 34°02' E 134°59'8 7.8
2015-Apr-11 18:33N 33°55' E 134°59'  

Dump ship's entire track history